Time;durP1;ratioP1;P1;durP2;ratioP2;P2;SDS_P1;SDS_P2;PMS_P1;PMS_P2;Temp;Humidity;BMP_temperature;BMP_pressure;BME280_temperature;BME280_humidity;BME280_pressure;Samples;Min_cycle;Max_cycle;Signal;HPM_P1;HPM_P2
2022/06/03 00:02:02;;;;;;;0.82;0.40;;;19.30;62.00;;;17.91;50.83;100502.31;10540864;27;96591;-84
2022/06/03 00:07:24;;;;;;;0.17;0.17;;;19.20;63.40;;;17.82;51.62;100489.31;10490618;27;97724;-84
2022/06/03 00:13:12;;;;;;;0.57;0.25;;;19.20;65.90;;;17.73;51.96;100512.03;10501160;27;97528;-84
2022/06/03 00:19:11;;;;;;;0.40;0.17;;;19.00;65.70;;;17.58;53.16;100523.81;10541452;27;96669;-84
2022/06/03 00:24:27;;;;;;;0.60;0.30;;;18.90;67.50;;;17.38;53.79;100509.50;10541654;27;98361;-84
2022/06/03 00:29:52;;;;;;;0.43;0.22;;;18.60;67.00;;;17.16;54.36;100500.00;10526974;27;96453;-84
2022/06/03 00:35:38;;;;;;;0.90;0.63;;;18.40;69.10;;;17.03;54.60;100512.34;10544243;27;97139;-85
2022/06/03 00:41:30;;;;;;;0.08;0.08;;;18.30;69.50;;;16.86;55.58;100513.75;10528427;27;97214;-87
2022/06/03 00:47:27;;;;;;;0.87;0.30;;;18.10;70.40;;;16.79;56.22;100526.28;10544021;27;98420;-84
2022/06/03 00:53:03;;;;;;;0.22;0.13;;;18.00;70.70;;;16.80;55.85;100523.41;10511579;27;96636;-85
2022/06/03 00:58:21;;;;;;;0.45;0.43;;;18.00;70.00;;;16.79;57.12;100532.50;10526784;27;96650;-84
2022/06/03 01:04:18;;;;;;;0.32;0.20;;;18.00;70.50;;;16.78;57.03;100532.69;10536789;27;98462;-85
2022/06/03 01:09:58;;;;;;;0.22;0.20;;;18.00;70.70;;;16.71;57.02;100524.59;10523515;27;96601;-85
2022/06/03 01:15:19;;;;;;;0.20;0.20;;;18.00;72.30;;;16.64;56.98;100518.34;10514243;27;96776;-85
2022/06/03 01:20:45;;;;;;;0.38;0.38;;;17.80;71.80;;;16.52;57.48;100519.94;10485304;27;96514;-85
2022/06/03 01:26:26;;;;;;;0.52;0.35;;;17.70;72.70;;;16.47;57.61;100533.13;10499804;27;96693;-84
2022/06/03 01:31:52;;;;;;;1.35;0.57;;;17.60;71.70;;;16.44;57.88;100536.22;10499794;27;97215;-84
2022/06/03 01:37:01;;;;;;;0.35;0.20;;;17.60;73.10;;;16.43;57.46;100537.22;10462468;27;97200;-84
2022/06/03 01:42:46;;;;;;;0.22;0.22;;;17.60;71.90;;;16.48;57.95;100556.22;10482738;27;96709;-84
2022/06/03 01:48:29;;;;;;;0.30;0.25;;;17.60;72.80;;;16.49;57.77;100548.00;10490187;27;96684;-84
2022/06/03 01:53:56;;;;;;;0.40;0.20;;;17.70;72.50;;;16.46;58.10;100548.41;10480460;27;97375;-84
2022/06/03 01:59:45;;;;;;;0.20;0.20;;;17.70;72.70;;;16.48;58.03;100558.91;10507074;27;96547;-84
2022/06/03 02:05:15;;;;;;;0.15;0.15;;;17.70;72.70;;;16.49;58.81;100561.44;10504466;27;96610;-84
2022/06/03 02:11:05;;;;;;;0.30;0.30;;;17.70;72.80;;;16.52;58.56;100563.69;10503672;27;96652;-84
2022/06/03 02:16:33;;;;;;;3.78;0.40;;;17.80;73.40;;;16.51;58.45;100561.22;10533671;27;98471;-84
2022/06/03 02:22:06;;;;;;;0.15;0.15;;;17.80;72.50;;;16.53;58.44;100565.34;10530873;27;99463;-84
2022/06/03 02:27:49;;;;;;;0.17;0.17;;;17.80;73.50;;;16.52;59.01;100568.25;10510005;27;96741;-84
2022/06/03 02:33:01;;;;;;;0.43;0.22;;;17.70;73.30;;;16.52;59.09;100573.59;10525793;27;98354;-84
2022/06/03 02:38:23;;;;;;;0.30;0.22;;;17.80;73.70;;;16.47;58.43;100565.31;10508096;27;96719;-85
2022/06/03 02:43:53;;;;;;;0.63;0.40;;;17.70;73.60;;;16.36;58.41;100571.22;10520230;27;96658;-85
2022/06/03 02:49:37;;;;;;;0.40;0.23;;;17.60;74.20;;;16.26;58.89;100569.72;10506090;27;96691;-86
2022/06/03 02:55:13;;;;;;;0.63;0.40;;;17.50;74.30;;;16.21;59.04;100574.84;10513334;27;97282;-86
2022/06/03 03:00:33;;;;;;;1.27;0.57;;;17.40;74.50;;;16.19;59.98;100573.38;10545027;27;96749;-84
2022/06/03 03:06:28;;;;;;;0.10;0.10;;;17.40;75.30;;;16.10;60.31;100570.03;10518918;27;97606;-84
2022/06/03 03:12:11;;;;;;;0.30;0.15;;;17.40;76.20;;;16.05;61.22;100588.53;10544470;27;97373;-83
2022/06/03 03:18:04;;;;;;;0.30;0.30;;;17.30;77.50;;;15.96;61.43;100597.75;10548297;27;97630;-83
2022/06/03 03:23:32;;;;;;;1.33;0.30;;;17.20;78.20;;;15.91;62.39;100608.22;10374777;28;96629;-83
2022/06/03 03:28:38;;;;;;;1.25;0.82;;;17.10;78.80;;;15.90;62.66;100604.72;10498779;27;96737;-83
2022/06/03 03:34:22;;;;;;;0.73;0.55;;;17.10;79.70;;;15.98;63.29;100609.09;10523715;27;97577;-83
2022/06/03 03:40:11;;;;;;;0.20;0.20;;;17.20;79.00;;;16.12;63.04;100599.31;10521857;27;96509;-84
2022/06/03 03:46:28;;;;;;;0.10;0.10;;;17.30;79.10;;;16.29;62.73;100601.50;10505179;27;96672;-83
2022/06/03 03:51:46;;;;;;;0.43;0.20;;;17.40;79.00;;;16.43;63.19;100601.59;10522104;27;98420;-84
2022/06/03 03:57:13;;;;;;;0.20;0.17;;;17.60;80.50;;;16.50;63.24;100603.31;10534759;27;96586;-82
2022/06/03 04:03:01;;;;;;;0.10;0.10;;;17.60;79.40;;;16.62;64.26;100594.72;10529506;27;96630;-82
2022/06/03 04:08:32;;;;;;;0.32;0.22;;;17.80;82.20;;;16.71;63.59;100604.28;10544835;27;97618;-82
2022/06/03 04:13:35;;;;;;;0.30;0.30;;;17.90;81.50;;;16.82;63.10;100611.78;10524477;27;96839;-82
2022/06/03 04:18:56;;;;;;;0.50;0.50;;;18.00;81.50;;;16.96;63.37;100612.66;10540539;27;99933;-81
2022/06/03 04:24:47;;;;;;;0.90;0.40;;;18.10;81.30;;;17.12;63.06;100615.84;10543964;27;97077;-81
2022/06/03 04:30:33;;;;;;;0.90;0.43;;;18.20;81.40;;;17.31;63.69;100614.25;10537997;27;96654;-81
2022/06/03 04:36:25;;;;;;;1.10;0.55;;;18.40;81.80;;;17.52;64.93;100618.66;10539849;27;96470;-82
2022/06/03 04:41:34;;;;;;;0.55;0.52;;;18.60;82.50;;;17.73;68.20;100624.94;10526581;27;96526;-83
2022/06/03 04:47:21;;;;;;;0.55;0.52;;;18.80;82.60;;;17.96;69.40;100627.25;10521996;27;96697;-82
2022/06/03 04:53:14;;;;;;;0.22;0.22;;;19.10;83.90;;;18.16;71.10;100628.88;10518924;27;96673;-83
2022/06/03 04:58:26;;;;;;;1.48;0.40;;;19.30;82.60;;;18.31;71.78;100630.56;10533515;27;96689;-82
2022/06/03 05:04:07;;;;;;;0.40;0.40;;;19.50;81.70;;;18.46;70.43;100634.66;10530468;27;96828;-82
2022/06/03 05:09:53;;;;;;;0.70;0.40;;;19.70;83.50;;;18.60;71.70;100632.81;10542895;27;96572;-82
2022/06/03 05:15:49;;;;;;;0.20;0.20;;;19.80;82.80;;;18.81;71.02;100639.81;10523388;27;97215;-81
2022/06/03 05:21:07;;;;;;;0.80;0.52;;;20.00;84.40;;;19.04;68.86;100642.03;10540891;27;96691;-82
2022/06/03 05:26:47;;;;;;;0.98;0.60;;;20.20;82.50;;;19.32;67.57;100646.28;10520318;27;99161;-82
2022/06/03 05:32:49;;;;;;;0.83;0.53;;;20.40;82.40;;;19.56;64.34;100642.03;10529985;27;98125;-82
2022/06/03 05:38:51;;;;;;;1.07;0.50;;;20.60;80.40;;;19.74;63.60;100644.84;10543764;27;98201;-83
2022/06/03 05:44:37;;;;;;;1.38;0.85;;;20.80;80.10;;;19.97;62.08;100655.03;10537442;27;98475;-80
2022/06/03 05:50:08;;;;;;;1.52;0.90;;;21.10;79.80;;;20.23;60.92;100656.72;10544632;27;97250;-80
2022/06/03 05:55:43;;;;;;;0.90;0.60;;;21.30;79.80;;;20.45;58.13;100659.84;10545905;27;96754;-80
2022/06/03 06:01:41;;;;;;;0.93;0.68;;;21.50;77.70;;;20.71;56.60;100650.72;10546293;27;96655;-80
2022/06/03 06:07:23;;;;;;;0.30;0.30;;;21.70;77.40;;;20.86;54.72;100659.25;10521225;27;96813;-80
2022/06/03 06:13:10;;;;;;;0.35;0.35;;;22.00;75.30;;;20.97;54.19;100646.91;10548755;27;96541;-80
2022/06/03 06:18:57;;;;;;;0.70;0.47;;;22.10;74.80;;;21.07;52.72;100648.03;10530519;27;98483;-80
2022/06/03 06:24:51;;;;;;;0.85;0.63;;;22.20;73.60;;;21.17;52.98;100658.31;10541061;27;97097;-80
2022/06/03 06:30:17;;;;;;;0.65;0.43;;;22.20;73.20;;;21.30;52.82;100655.47;10462278;27;96899;-80
2022/06/03 06:36:07;;;;;;;0.52;0.50;;;22.40;73.20;;;21.44;53.63;100645.31;10551371;27;97103;-80
2022/06/03 06:41:59;;;;;;;0.50;0.40;;;22.50;73.70;;;21.44;51.93;100639.91;10549637;27;97776;-80
2022/06/03 06:48:03;;;;;;;0.63;0.50;;;22.60;72.00;;;21.55;52.40;100641.81;10550561;27;96404;-80
2022/06/03 06:53:26;;;;;;;0.57;0.40;;;22.60;72.20;;;21.64;52.12;100640.44;10548387;27;96615;-80
2022/06/03 06:58:50;;;;;;;0.95;0.60;;;22.70;72.00;;;21.78;52.47;100629.44;10529096;27;96553;-80
2022/06/03 07:04:14;;;;;;;0.85;0.57;;;22.90;72.10;;;21.92;51.41;100620.06;10508494;27;97561;-80
2022/06/03 07:09:35;;;;;;;0.82;0.57;;;23.00;71.50;;;22.06;51.01;100616.06;10532973;27;96718;-80
2022/06/03 07:15:15;;;;;;;0.67;0.57;;;23.10;71.00;;;22.24;50.84;100617.06;10493565;27;96646;-80
2022/06/03 07:21:03;;;;;;;0.50;0.35;;;23.30;70.60;;;22.39;48.93;100620.16;10507088;27;96635;-80
2022/06/03 07:26:39;;;;;;;0.98;0.60;;;23.40;67.00;;;22.58;48.92;100618.13;10444193;27;96508;-80
2022/06/03 07:32:20;;;;;;;1.35;0.95;;;23.60;68.90;;;22.74;48.69;100622.84;10506754;27;96470;-80
2022/06/03 07:37:25;;;;;;;3.55;0.77;;;23.80;68.30;;;22.87;48.68;100622.59;10499946;27;96598;-80
2022/06/03 07:43:12;;;;;;;0.70;0.50;;;23.90;68.40;;;23.02;49.12;100613.97;10464538;27;96650;-80
2022/06/03 07:48:22;;;;;;;0.85;0.80;;;24.10;68.40;;;23.22;49.07;100606.25;10452058;27;97401;-80
2022/06/03 07:53:59;;;;;;;0.50;0.50;;;24.30;68.40;;;23.39;48.94;100602.75;10463799;27;97601;-80
2022/06/03 07:59:13;;;;;;;1.00;0.60;;;24.40;68.30;;;23.62;49.23;100594.53;10470909;27;96551;-80
2022/06/03 08:04:32;;;;;;;0.75;0.40;;;24.60;68.90;;;23.82;47.12;100602.22;10464305;27;97545;-80
2022/06/03 08:14:57;;;;;;;1.00;0.70;;;24.90;66.10;;;23.95;45.90;100590.22;10470293;27;96646;-80
2022/06/03 08:20:00;;;;;;;0.77;0.70;;;25.00;65.10;;;24.09;45.57;100586.09;10445885;27;96470;-80
2022/06/03 08:25:06;;;;;;;0.80;0.50;;;25.10;64.90;;;24.31;44.28;100586.16;10498102;27;96536;-81
2022/06/03 08:30:17;;;;;;;0.85;0.50;;;25.30;64.30;;;24.47;42.74;100587.22;10484493;27;96712;-80
2022/06/03 08:35:25;;;;;;;0.47;0.40;;;25.50;62.80;;;24.58;43.27;100580.84;10503727;27;96893;-81
2022/06/03 08:41:03;;;;;;;0.80;0.68;;;25.60;62.10;;;24.71;42.43;100576.94;10484301;27;97244;-81
2022/06/03 08:46:59;;;;;;;0.75;0.57;;;25.70;61.30;;;24.83;41.47;100573.06;10449020;27;97758;-80
2022/06/03 08:52:10;;;;;;;0.40;0.40;;;25.80;60.50;;;24.92;40.46;100567.16;10450330;27;96718;-80
2022/06/03 08:57:21;;;;;;;1.30;0.50;;;25.90;59.50;;;25.12;40.79;100567.41;10510628;27;96810;-81
2022/06/03 09:02:41;;;;;;;0.50;0.40;;;26.10;59.40;;;25.25;39.14;100561.59;10511311;27;96419;-80
2022/06/03 09:07:55;;;;;;;0.63;0.40;;;26.30;57.90;;;25.47;39.48;100564.25;10492216;27;96748;-81
2022/06/03 09:13:09;;;;;;;0.20;0.20;;;26.50;57.90;;;25.66;38.83;100561.97;10517430;27;96688;-80
2022/06/03 09:18:26;;;;;;;0.73;0.50;;;26.60;57.60;;;25.74;38.17;100558.81;10495655;27;97368;-79
2022/06/03 09:23:38;;;;;;;0.82;0.40;;;26.80;56.70;;;25.76;37.54;100555.84;10509352;27;96639;-79
2022/06/03 09:28:41;;;;;;;0.60;0.43;;;26.80;55.80;;;25.83;37.54;100557.25;10534197;27;98326;-80
2022/06/03 09:33:45;;;;;;;0.73;0.52;;;26.90;56.30;;;25.98;38.37;100553.03;10552098;27;96662;-80
2022/06/03 09:38:58;;;;;;;0.50;0.40;;;27.00;56.00;;;26.21;37.40;100552.63;10523492;27;96894;-80
2022/06/03 09:44:03;;;;;;;0.73;0.30;;;27.30;55.70;;;26.44;37.57;100556.03;10538714;27;97735;-80
2022/06/03 09:49:09;;;;;;;0.28;0.20;;;27.50;55.70;;;26.67;37.33;100561.06;10535034;27;96979;-81
2022/06/03 09:54:32;;;;;;;1.45;0.60;;;27.60;55.70;;;26.90;36.59;100554.34;10520728;27;96692;-81
2022/06/03 09:59:39;;;;;;;0.93;0.63;;;27.90;54.40;;;26.92;36.15;100557.63;10514038;27;97477;-81
2022/06/03 10:04:42;;;;;;;0.85;0.50;;;28.00;54.40;;;27.08;35.65;100572.16;10533206;27;97700;-81
2022/06/03 10:20:36;;;;;;;1.50;0.40;;;28.40;53.20;;;27.42;35.84;100550.69;10507657;27;96554;-81
2022/06/03 10:25:49;;;;;;;0.60;0.30;;;28.50;53.30;;;27.58;33.91;100548.78;10507346;27;96824;-81
2022/06/03 10:31:04;;;;;;;0.50;0.40;;;28.70;52.40;;;27.58;35.58;100549.59;10509428;27;96441;-80
2022/06/03 10:36:07;;;;;;;1.70;0.50;;;28.60;52.70;;;27.83;34.21;100546.13;10475578;27;96547;-80
2022/06/03 10:41:10;;;;;;;0.32;0.32;;;28.90;52.20;;;28.15;33.99;100534.03;10492347;27;96545;-80
2022/06/03 10:46:17;;;;;;;0.50;0.32;;;29.10;51.80;;;28.36;33.29;100523.91;10507783;27;96409;-81
2022/06/03 11:02:26;;;;;;;0.77;0.47;;;29.60;49.90;;;28.53;32.54;100514.25;10498810;27;96425;-80
2022/06/03 11:07:30;;;;;;;0.52;0.32;;;29.60;50.10;;;28.57;31.43;100511.00;10507296;27;96549;-80
2022/06/03 11:12:34;;;;;;;0.40;0.40;;;29.70;48.10;;;28.71;32.50;100506.53;10517437;27;96646;-80
2022/06/03 11:17:42;;;;;;;0.50;0.35;;;29.80;49.70;;;28.79;31.46;100498.59;10548619;27;96446;-80
2022/06/03 11:22:45;;;;;;;0.50;0.30;;;29.90;49.10;;;28.86;31.94;100489.25;10547964;27;96495;-81
2022/06/03 11:28:30;;;;;;;0.40;0.30;;;30.00;48.70;;;29.11;32.09;100477.34;10547331;27;96657;-81
2022/06/03 11:33:51;;;;;;;0.30;0.20;;;30.10;48.50;;;29.10;30.74;100475.72;10544197;27;96644;-80
2022/06/03 11:39:07;;;;;;;0.52;0.30;;;30.30;48.10;;;29.10;32.12;100476.53;10548848;27;96422;-81
2022/06/03 11:44:27;;;;;;;0.47;0.32;;;30.20;48.80;;;29.44;31.06;100470.25;10504761;27;96588;-80
2022/06/03 11:49:31;;;;;;;0.45;0.40;;;30.50;48.40;;;29.62;31.91;100463.28;10530770;27;96516;-81
2022/06/03 11:54:40;;;;;;;0.73;0.40;;;30.70;48.90;;;29.85;29.35;100435.09;10539476;27;97463;-81
2022/06/03 11:59:47;;;;;;;0.40;0.40;;;31.00;46.20;;;30.09;30.91;100437.84;10507490;27;96943;-82
2022/06/03 12:05:00;;;;;;;0.47;0.35;;;31.00;48.00;;;30.18;28.24;100429.84;10530602;27;96497;-79
2022/06/03 12:10:30;;;;;;;0.93;0.65;;;31.20;46.60;;;30.07;30.36;100418.97;10521336;27;96500;-81
2022/06/03 12:15:55;;;;;;;0.30;0.30;;;31.20;47.40;;;30.03;29.38;100411.63;10486722;27;96720;-81
2022/06/03 12:21:09;;;;;;;0.25;0.13;;;31.20;45.40;;;30.03;29.63;100404.22;10488140;27;96520;-80
2022/06/03 12:26:31;;;;;;;0.60;0.40;;;31.20;46.50;;;29.93;29.79;100409.81;10540993;27;96487;-80
2022/06/03 12:31:42;;;;;;;3.95;0.63;;;31.10;46.40;;;30.32;30.95;100397.84;10528577;27;97157;-81
2022/06/03 12:36:47;;;;;;;0.30;0.28;;;31.30;47.50;;;30.41;29.40;100396.09;10529690;27;96657;-81
2022/06/03 12:41:51;;;;;;;0.25;0.25;;;31.50;46.50;;;30.54;29.30;100378.09;10545493;27;97312;-80
2022/06/03 12:47:48;;;;;;;0.60;0.32;;;31.70;46.20;;;30.62;29.07;100370.00;10546413;27;96634;-80
2022/06/03 12:53:22;;;;;;;0.40;0.30;;;31.70;46.70;;;30.49;28.65;100369.94;10471037;27;97613;-80
2022/06/03 12:58:48;;;;;;;0.60;0.60;;;31.70;45.60;;;30.57;29.37;100367.31;10530921;27;96995;-81
2022/06/03 13:03:51;;;;;;;1.02;0.40;;;31.70;45.90;;;30.75;28.31;100360.22;10545448;27;96866;-80
2022/06/03 13:14:29;;;;;;;0.80;0.55;;;32.10;45.60;;;30.83;28.31;100339.56;10530780;27;96677;-82
2022/06/03 13:19:42;;;;;;;0.50;0.38;;;32.10;45.40;;;30.72;29.93;100347.13;10532642;27;96573;-80
2022/06/03 13:25:14;;;;;;;0.90;0.68;;;31.90;46.10;;;31.02;29.29;100345.81;10517463;27;96683;-82
2022/06/03 13:30:17;;;;;;;0.45;0.40;;;32.10;45.10;;;31.21;28.20;100332.03;10523061;27;96616;-82
2022/06/03 13:35:22;;;;;;;0.47;0.40;;;32.20;45.40;;;31.45;28.08;100337.38;10535428;27;96570;-82
2022/06/03 13:40:25;;;;;;;0.20;0.20;;;32.40;45.40;;;31.73;27.96;100329.97;10540488;27;96758;-82
2022/06/03 13:46:02;;;;;;;0.40;0.40;;;32.70;45.40;;;31.85;27.07;100318.50;10535014;27;97030;-81
2022/06/03 13:51:44;;;;;;;0.88;0.50;;;32.90;44.80;;;31.45;27.30;100312.66;10553316;27;96422;-81
2022/06/03 13:57:14;;;;;;;0.40;0.30;;;32.70;44.10;;;31.46;27.77;100306.06;10545923;27;96547;-81
2022/06/03 14:02:30;;;;;;;0.30;0.30;;;32.70;44.20;;;31.68;26.80;100297.13;10527250;27;96657;-81
2022/06/03 14:07:42;;;;;;;0.22;0.20;;;32.90;44.10;;;31.89;28.06;100303.00;10549474;27;96496;-83
2022/06/03 14:13:02;;;;;;;1.15;0.40;;;33.00;44.60;;;32.04;26.75;100299.94;10532219;27;96967;-82
2022/06/03 14:18:06;;;;;;;0.30;0.30;;;33.20;44.00;;;32.14;26.63;100298.88;10533133;27;96602;-83
2022/06/03 14:23:30;;;;;;;0.55;0.45;;;33.20;43.90;;;32.19;27.44;100291.34;10512459;27;96524;-80
2022/06/03 14:29:01;;;;;;;0.45;0.45;;;33.30;44.10;;;32.28;26.70;100290.63;10541316;27;96589;-82
2022/06/03 14:34:38;;;;;;;0.50;0.30;;;33.30;43.10;;;32.20;27.52;100281.97;10500014;27;96618;-83
2022/06/03 14:39:46;;;;;;;0.40;0.30;;;33.20;44.20;;;32.27;27.52;100267.81;10526401;27;96859;-86
2022/06/03 14:44:49;;;;;;;0.27;0.27;;;33.30;44.40;;;32.41;27.55;100265.84;10515109;27;96802;-85
2022/06/03 14:50:01;;;;;;;1.02;0.30;;;33.30;44.60;;;32.47;26.87;100263.78;10516965;27;96945;-86
2022/06/03 14:55:09;;;;;;;0.35;0.30;;;33.40;43.80;;;32.45;25.97;100266.03;10533486;27;96527;-87
2022/06/03 15:00:44;;;;;;;0.30;0.30;;;33.50;43.10;;;32.53;26.12;100246.03;10548956;27;96712;-83
2022/06/03 15:06:00;;;;;;;0.35;0.32;;;33.50;43.30;;;32.46;25.69;100229.16;10509397;27;97000;-85
2022/06/03 15:11:25;;;;;;;0.30;0.22;;;33.50;42.30;;;32.44;26.04;100225.88;10524136;27;96882;-82
2022/06/03 15:16:29;;;;;;;0.47;0.30;;;33.40;42.80;;;32.49;26.03;100217.50;10534176;27;96554;-81
2022/06/03 15:21:35;;;;;;;0.30;0.25;;;33.50;42.70;;;32.39;25.49;100224.09;10525294;27;96414;-84
2022/06/03 15:26:43;;;;;;;0.52;0.30;;;33.50;42.10;;;32.27;26.36;100225.72;10509957;27;96498;-84
2022/06/03 15:31:52;;;;;;;0.43;0.22;;;33.30;42.80;;;32.21;26.74;100225.88;10525850;27;96822;-83
2022/06/03 15:36:56;;;;;;;2.38;0.68;;;33.30;43.10;;;32.22;26.64;100235.75;10548899;27;96593;-84
2022/06/03 15:42:08;;;;;;;0.60;0.40;;;33.30;43.20;;;32.26;26.98;100238.66;10547725;27;96522;-83
2022/06/03 15:47:26;;;;;;;1.13;0.40;;;33.40;43.50;;;32.25;26.48;100234.28;10519180;27;96830;-84
2022/06/03 15:52:45;;;;;;;0.98;0.40;;;33.40;43.00;;;32.27;27.24;100237.56;10542196;27;98252;-83
2022/06/03 15:58:20;;;;;;;0.20;0.20;;;33.30;43.60;;;32.26;26.69;100224.09;10546321;27;97382;-84
2022/06/03 16:03:46;;;;;;;0.17;0.17;;;33.30;43.20;;;32.10;26.00;100208.00;10523096;27;96684;-83
2022/06/03 16:09:23;;;;;;;0.25;0.25;;;33.20;42.80;;;32.03;26.80;100204.88;10515884;27;96666;-84
2022/06/03 16:14:49;;;;;;;0.30;0.30;;;33.20;42.80;;;31.97;27.19;100217.09;10531152;27;97418;-82
2022/06/03 16:20:12;;;;;;;2.55;0.77;;;33.00;43.60;;;31.82;27.67;100214.69;10505549;27;96699;-81
2022/06/03 16:25:41;;;;;;;1.33;0.77;;;32.90;43.70;;;31.64;27.79;100222.72;10523943;27;97207;-81
2022/06/03 16:31:39;;;;;;;0.17;0.10;;;32.70;43.80;;;31.59;28.55;100233.81;10529266;27;96513;-82
2022/06/03 16:36:51;;;;;;;0.40;0.40;;;32.70;44.60;;;31.32;27.98;100229.19;10516770;27;96577;-81
2022/06/03 16:42:15;;;;;;;0.28;0.28;;;32.50;43.70;;;31.05;28.58;100229.13;10527477;27;96874;-81
2022/06/03 16:47:47;;;;;;;0.60;0.30;;;32.20;44.10;;;30.74;29.36;100218.72;10545020;27;97038;-82
2022/06/03 16:52:53;;;;;;;0.75;0.40;;;31.80;44.80;;;30.56;31.33;100216.81;10532747;27;98127;-82
2022/06/03 16:58:17;;;;;;;0.30;0.20;;;31.60;46.70;;;30.28;31.49;100207.66;10512992;27;98377;-81
2022/06/03 17:03:38;;;;;;;1.23;0.60;;;31.40;46.70;;;30.06;31.88;100211.84;10543242;27;96654;-81
2022/06/03 17:08:50;;;;;;;0.28;0.20;;;31.20;47.20;;;29.82;31.85;100208.34;10526127;27;96794;-81
2022/06/03 17:13:58;;;;;;;0.35;0.30;;;31.00;46.90;;;29.59;32.35;100205.38;10512830;27;96722;-80
2022/06/03 17:19:03;;;;;;;0.43;0.33;;;30.70;47.20;;;29.41;32.54;100214.34;10487487;27;97018;-83
2022/06/03 17:24:16;;;;;;;0.55;0.20;;;30.50;47.40;;;29.15;32.51;100210.25;10487457;27;98089;-81
2022/06/03 17:29:53;;;;;;;0.40;0.40;;;30.30;47.50;;;28.91;34.01;100205.56;10491520;27;97576;-81
2022/06/03 17:35:22;;;;;;;1.95;0.50;;;30.00;48.80;;;28.55;34.09;100207.84;10501953;27;96701;-79
2022/06/03 17:40:49;;;;;;;1.03;0.73;;;29.70;48.70;;;28.28;34.88;100203.63;10491740;27;96958;-80
2022/06/03 17:46:27;;;;;;;1.30;0.65;;;29.40;49.60;;;28.02;35.24;100198.66;10496583;27;97278;-81
2022/06/03 17:57:39;;;;;;;1.10;0.40;;;28.90;50.40;;;27.47;35.07;100212.31;10510957;27;96629;-86
2022/06/03 18:03:26;;;;;;;0.60;0.38;;;28.60;49.60;;;27.26;36.21;100213.47;10489311;27;96879;-85
2022/06/03 18:08:40;;;;;;;0.70;0.47;;;28.30;50.70;;;27.08;36.47;100212.16;10483740;27;96753;-85
2022/06/03 18:14:00;;;;;;;0.40;0.30;;;28.10;50.90;;;26.88;37.19;100211.06;10512558;27;97285;-85
2022/06/03 18:19:20;;;;;;;0.90;0.50;;;28.00;51.50;;;26.71;37.01;100205.09;10538728;27;96647;-83
2022/06/03 18:25:06;;;;;;;1.00;0.52;;;27.80;51.30;;;26.50;37.47;100198.84;10491074;27;96676;-82
2022/06/03 18:30:31;;;;;;;0.55;0.30;;;27.60;51.60;;;26.31;38.09;100205.91;10515711;27;97322;-81
2022/06/03 18:36:01;;;;;;;0.95;0.40;;;27.40;51.90;;;26.13;38.23;100201.78;10491847;27;97383;-81
2022/06/03 18:41:26;;;;;;;0.80;0.40;;;27.20;52.40;;;25.96;38.75;100209.38;10537259;27;97376;-80
2022/06/03 18:47:15;;;;;;;0.68;0.50;;;27.00;52.50;;;25.76;38.83;100210.16;10543856;27;97348;-79
2022/06/03 18:52:44;;;;;;;0.30;0.30;;;26.80;53.00;;;25.52;39.43;100216.03;10548061;27;96729;-81
2022/06/03 18:58:56;;;;;;;0.77;0.40;;;26.60;52.80;;;25.32;40.03;100224.13;10528265;27;97380;-80
2022/06/03 19:04:35;;;;;;;1.25;0.45;;;26.50;53.20;;;25.18;40.43;100240.06;10419452;27;97494;-81
2022/06/03 19:10:04;;;;;;;0.68;0.40;;;26.30;54.20;;;25.05;40.92;100245.97;10545996;27;96638;-82
2022/06/03 19:15:25;;;;;;;0.50;0.40;;;26.20;54.10;;;24.89;41.71;100250.47;10518662;27;97383;-81
2022/06/03 19:21:07;;;;;;;1.83;1.17;;;26.00;55.90;;;24.67;42.98;100260.63;10526418;27;96675;-80
2022/06/03 19:26:17;;;;;;;0.75;0.40;;;25.80;55.70;;;24.50;43.94;100260.75;10541003;27;96721;-81
2022/06/03 19:31:20;;;;;;;1.23;0.60;;;25.70;56.00;;;24.35;45.29;100266.03;10528085;27;97545;-80
2022/06/03 19:36:41;;;;;;;0.55;0.32;;;25.50;58.10;;;24.17;47.23;100273.47;10529513;27;96584;-80
2022/06/03 19:42:30;;;;;;;;;;;25.30;59.60;;;23.93;48.01;100269.38;10534361;27;98523;-80
2022/06/03 19:48:15;;;;;;;1.42;0.68;;;25.10;60.60;;;23.70;49.11;100256.91;10529838;27;96859;-80
2022/06/03 19:53:21;;;;;;;1.58;0.65;;;24.80;61.30;;;23.55;48.92;100256.69;10504211;27;96731;-81
2022/06/03 19:58:58;;;;;;;0.77;0.50;;;24.60;61.80;;;23.42;49.05;100245.13;10544528;27;96877;-80
2022/06/03 20:04:21;;;;;;;1.20;0.80;;;24.50;61.70;;;23.35;49.62;100246.38;10533399;27;97725;-80
2022/06/03 20:09:46;;;;;;;0.80;0.63;;;24.40;62.30;;;23.27;50.17;100244.09;10536924;27;97329;-85
2022/06/03 20:14:56;;;;;;;0.65;0.50;;;24.30;63.80;;;23.18;50.32;100247.25;10514096;27;98353;-82
2022/06/03 20:20:10;;;;;;;1.67;0.98;;;24.20;64.40;;;23.08;50.61;100243.56;10525789;27;96688;-83
2022/06/03 20:25:52;;;;;;;1.80;1.00;;;24.10;63.80;;;22.97;51.50;100239.91;10507264;27;96676;-82
2022/06/03 20:31:22;;;;;;;1.42;1.13;;;24.00;66.00;;;22.85;51.76;100239.13;10530499;27;97380;-83
2022/06/03 20:36:50;;;;;;;0.47;0.32;;;23.90;65.60;;;22.71;51.88;100234.03;10510652;27;97321;-83
2022/06/03 20:42:21;;;;;;;0.20;0.20;;;23.70;66.30;;;22.58;51.99;100237.09;10522661;27;97018;-83
2022/06/03 20:47:57;;;;;;;1.10;0.63;;;23.60;66.30;;;22.49;51.81;100221.47;10535788;27;97824;-83
2022/06/03 20:53:19;;;;;;;2.13;1.08;;;23.50;66.70;;;22.40;52.31;100221.06;10526060;27;97913;-83
2022/06/03 20:58:34;;;;;;;1.50;0.95;;;23.40;66.70;;;22.30;53.08;100231.72;10535182;27;97236;-83
2022/06/03 21:14:25;;;;;;;0.85;0.60;;;23.10;67.70;;;21.96;53.87;100230.81;10526301;27;96678;-83
2022/06/03 21:19:29;;;;;;;0.95;0.40;;;22.90;68.20;;;21.86;54.39;100232.25;10507854;27;96703;-83
2022/06/03 21:24:50;;;;;;;0.70;0.40;;;22.80;69.10;;;21.75;54.51;100235.81;10510754;27;96651;-83
2022/06/03 21:29:53;;;;;;;0.57;0.40;;;22.70;67.80;;;21.69;54.70;100241.38;10477250;27;96791;-83
2022/06/03 21:35:29;;;;;;;0.60;0.43;;;22.70;69.10;;;21.62;55.14;100239.63;10497767;27;96793;-84
2022/06/03 21:41:29;;;;;;;0.93;0.57;;;22.60;70.00;;;21.55;55.61;100232.72;10508137;27;96529;-84
2022/06/03 21:47:00;;;;;;;1.30;0.52;;;22.60;70.50;;;21.46;55.45;100229.53;10472604;27;100122;-84
2022/06/03 21:53:25;;;;;;;0.90;0.28;;;22.50;70.50;;;21.43;55.27;100234.63;10490298;27;96791;-84
2022/06/03 21:59:04;;;;;;;1.10;0.50;;;22.40;69.10;;;21.40;55.67;100244.00;10308205;28;99869;-83
2022/06/03 22:04:07;;;;;;;0.32;0.30;;;22.40;70.80;;;21.34;55.97;100239.56;10405410;27;97142;-83
2022/06/03 22:09:10;;;;;;;0.68;0.40;;;22.40;71.40;;;21.27;56.38;100234.25;10477412;27;96593;-84
2022/06/03 22:14:13;;;;;;;0.77;0.45;;;22.30;72.00;;;21.23;56.84;100245.75;10491832;27;96608;-84
2022/06/03 22:19:16;;;;;;;0.32;0.30;;;22.20;72.40;;;21.20;56.61;100248.97;10522078;27;96680;-84
2022/06/03 22:24:19;;;;;;;0.63;0.38;;;22.20;71.90;;;21.17;56.55;100255.66;10550663;27;97650;-84
2022/06/03 22:29:49;;;;;;;0.40;0.40;;;22.20;71.80;;;21.17;56.79;100250.25;10549754;27;97216;-84
2022/06/03 22:35:18;;;;;;;0.38;0.30;;;22.10;71.70;;;21.17;56.94;100249.41;10542818;27;97429;-82
2022/06/03 22:40:52;;;;;;;0.52;0.40;;;22.10;71.60;;;21.13;57.58;100259.06;10547858;27;97002;-82
2022/06/03 22:45:55;;;;;;;0.75;0.28;;;22.10;71.20;;;21.07;57.62;100250.84;10549741;27;96602;-82
2022/06/03 22:50:58;;;;;;;0.50;0.50;;;22.10;72.60;;;21.24;57.40;100258.25;10549056;27;96552;-81
2022/06/03 22:56:02;;;;;;;0.75;0.30;;;22.20;71.70;;;21.59;56.94;100260.91;10546763;27;96772;-82
2022/06/03 23:01:08;;;;;;;0.20;0.20;;;22.40;72.60;;;21.77;57.03;100259.91;10529526;27;96620;-82
2022/06/03 23:06:12;;;;;;;0.60;0.55;;;22.60;72.50;;;22.02;59.93;100246.91;10530431;27;96777;-81